createdAt,value
2022-12-31T00:01:42.430Z,11.12
2022-12-31T00:04:08.904Z,11.12
2022-12-31T00:06:36.159Z,11.11
2022-12-31T00:09:06.373Z,11.12
2022-12-31T00:11:33.513Z,11.11
2022-12-31T00:14:00.949Z,11.14
2022-12-31T00:16:30.586Z,11.12
2022-12-31T00:18:59.459Z,11.13
2022-12-31T00:21:28.093Z,11.12
2022-12-31T00:23:54.613Z,11.14
2022-12-31T00:26:27.494Z,11.15
2022-12-31T00:28:55.695Z,11.15
2022-12-31T00:31:26.092Z,11.15
2022-12-31T00:33:52.973Z,11.15
2022-12-31T00:36:27.385Z,11.15
2022-12-31T00:38:55.749Z,11.15
2022-12-31T00:41:23.293Z,11.15
2022-12-31T00:43:50.377Z,11.15
2022-12-31T00:46:17.905Z,11.16
2022-12-31T00:48:45.050Z,11.14
2022-12-31T00:51:15.065Z,11.14
2022-12-31T00:53:41.721Z,11.13
2022-12-31T00:56:16.039Z,11.13
2022-12-31T00:58:42.719Z,11.12
2022-12-31T01:01:27.183Z,11.10
2022-12-31T01:03:57.633Z,11.10
2022-12-31T01:06:24.383Z,11.08
2022-12-31T01:08:52.121Z,11.08
2022-12-31T01:11:19.638Z,11.05
2022-12-31T01:13:48.932Z,11.04
2022-12-31T01:16:16.512Z,11.03
2022-12-31T01:18:42.957Z,11.01
2022-12-31T01:21:11.604Z,11.00
2022-12-31T01:23:38.121Z,11.00
2022-12-31T01:26:07.604Z,10.98
2022-12-31T01:28:35.054Z,10.95
2022-12-31T01:31:11.039Z,10.95
2022-12-31T01:33:38.281Z,10.93
2022-12-31T01:36:08.061Z,10.92
2022-12-31T01:38:35.154Z,10.92
2022-12-31T01:41:02.534Z,10.90
2022-12-31T01:44:15.765Z,10.89
2022-12-31T01:46:44.678Z,10.87
2022-12-31T01:49:20.306Z,10.86
2022-12-31T01:51:51.806Z,10.85
2022-12-31T01:54:21.301Z,10.84
2022-12-31T01:56:50.531Z,10.82
2022-12-31T01:59:18.970Z,10.83
2022-12-31T02:01:48.353Z,10.81
2022-12-31T02:04:16.351Z,10.81
2022-12-31T02:06:53.939Z,10.80
2022-12-31T02:09:21.086Z,10.79
2022-12-31T02:11:47.570Z,10.79
2022-12-31T02:14:22.780Z,10.79
2022-12-31T02:17:07.290Z,10.78
2022-12-31T02:20:15.740Z,10.78
2022-12-31T02:23:15.910Z,10.75
2022-12-31T02:25:57.152Z,10.75
2022-12-31T02:28:36.932Z,10.74
2022-12-31T02:31:17.032Z,10.74
2022-12-31T02:33:57.385Z,10.73
2022-12-31T02:36:30.265Z,10.73
2022-12-31T02:38:58.424Z,10.70
2022-12-31T02:41:43.510Z,10.69
2022-12-31T02:44:30.729Z,10.69
2022-12-31T02:47:09.139Z,10.68
2022-12-31T02:49:38.344Z,10.66
2022-12-31T02:52:24.926Z,10.63
2022-12-31T02:55:02.808Z,10.62
2022-12-31T02:57:42.335Z,10.60
2022-12-31T03:00:33.462Z,10.58
2022-12-31T03:03:01.575Z,10.57
2022-12-31T03:05:32.272Z,10.56
2022-12-31T03:07:59.012Z,10.55
2022-12-31T03:10:25.601Z,10.53
2022-12-31T03:12:52.196Z,10.54
2022-12-31T03:15:23.672Z,10.50
2022-12-31T03:17:50.081Z,10.51
2022-12-31T03:20:35.599Z,10.49
2022-12-31T03:23:05.800Z,10.48
2022-12-31T03:25:35.683Z,10.47
2022-12-31T03:28:04.558Z,10.45
2022-12-31T03:30:32.367Z,10.43
2022-12-31T03:32:59.685Z,10.45
2022-12-31T03:35:27.893Z,10.43
2022-12-31T03:37:54.607Z,10.41
2022-12-31T03:40:22.941Z,10.40
2022-12-31T03:42:50.389Z,10.37
2022-12-31T03:45:17.941Z,10.34
2022-12-31T03:47:44.661Z,10.33
2022-12-31T03:50:13.992Z,10.32
2022-12-31T03:52:40.779Z,10.30
2022-12-31T03:55:08.754Z,10.30
2022-12-31T03:57:35.545Z,10.28
2022-12-31T04:00:03.432Z,10.27
2022-12-31T04:02:31.269Z,10.25
2022-12-31T04:04:57.927Z,10.26
2022-12-31T04:07:24.438Z,10.25
2022-12-31T04:09:50.913Z,10.23
2022-12-31T04:12:17.430Z,10.21
2022-12-31T04:14:43.905Z,10.19
2022-12-31T04:17:10.329Z,10.18
2022-12-31T04:19:37.631Z,10.18
2022-12-31T04:22:04.656Z,10.15
2022-12-31T04:24:31.242Z,10.17
2022-12-31T04:27:03.629Z,10.15
2022-12-31T04:29:33.970Z,10.14
2022-12-31T04:32:00.628Z,10.12
2022-12-31T04:34:27.111Z,10.10
2022-12-31T04:36:53.704Z,10.09
2022-12-31T04:39:20.139Z,10.06
2022-12-31T04:41:46.787Z,10.07
2022-12-31T04:44:13.323Z,10.06
2022-12-31T04:46:39.812Z,10.07
2022-12-31T04:49:06.710Z,10.07
2022-12-31T04:51:33.817Z,10.07
2022-12-31T04:54:00.534Z,10.07
2022-12-31T04:56:28.180Z,10.07
2022-12-31T04:58:55.125Z,10.08
2022-12-31T05:01:22.085Z,10.08
2022-12-31T05:03:49.390Z,10.08
2022-12-31T05:06:18.947Z,10.07
2022-12-31T05:08:45.688Z,10.08
2022-12-31T05:11:12.537Z,10.09
2022-12-31T05:13:39.546Z,10.09
2022-12-31T05:16:06.873Z,10.08
2022-12-31T05:18:34.400Z,10.10
2022-12-31T05:21:00.870Z,10.10
2022-12-31T05:23:27.582Z,10.10
2022-12-31T05:25:54.492Z,10.10
2022-12-31T05:28:21.302Z,10.12
2022-12-31T05:30:50.008Z,10.13
2022-12-31T05:33:18.053Z,10.15
2022-12-31T05:35:44.836Z,10.16
2022-12-31T05:38:11.706Z,10.19
2022-12-31T05:40:38.278Z,10.22
2022-12-31T05:43:04.866Z,10.25
2022-12-31T05:45:31.561Z,10.27
2022-12-31T05:47:58.433Z,10.30
2022-12-31T05:50:25.010Z,10.31
2022-12-31T05:52:56.023Z,10.33
2022-12-31T05:55:22.677Z,10.35
2022-12-31T05:57:49.420Z,10.38
2022-12-31T06:00:16.375Z,10.41
2022-12-31T06:02:43.092Z,10.42
2022-12-31T06:05:09.716Z,10.44
2022-12-31T06:07:36.238Z,10.47
2022-12-31T06:10:04.567Z,10.48
2022-12-31T06:12:31.143Z,10.51
2022-12-31T06:14:57.752Z,10.52
2022-12-31T06:17:24.616Z,10.54
2022-12-31T06:19:51.100Z,10.53
2022-12-31T06:22:17.626Z,10.55
2022-12-31T06:24:44.126Z,10.56
2022-12-31T06:27:10.634Z,10.59
2022-12-31T06:29:37.218Z,10.60
2022-12-31T06:32:03.967Z,10.62
2022-12-31T06:34:30.696Z,10.63
2022-12-31T06:36:57.650Z,10.65
2022-12-31T06:39:24.258Z,10.67
2022-12-31T06:41:50.670Z,10.69
2022-12-31T06:44:17.162Z,10.71
2022-12-31T06:46:43.659Z,10.77
2022-12-31T06:49:10.305Z,10.77
2022-12-31T06:51:36.770Z,10.82
2022-12-31T06:54:03.219Z,10.84
2022-12-31T06:56:34.412Z,10.87
2022-12-31T06:59:02.872Z,10.90
2022-12-31T07:01:58.355Z,10.96
2022-12-31T07:05:02.226Z,11.00
2022-12-31T07:07:53.698Z,11.08
2022-12-31T07:10:30.249Z,11.12
2022-12-31T07:13:27.882Z,11.17
2022-12-31T07:16:09.742Z,11.21
2022-12-31T07:18:45.241Z,11.26
2022-12-31T07:21:15.453Z,11.31
2022-12-31T07:23:42.927Z,11.38
2022-12-31T07:26:30.789Z,11.45
2022-12-31T07:29:17.085Z,11.50
2022-12-31T07:31:52.408Z,11.57
2022-12-31T07:34:30.952Z,11.63
2022-12-31T07:37:13.057Z,11.68
2022-12-31T07:39:54.337Z,11.70
2022-12-31T07:42:32.883Z,11.76
2022-12-31T07:45:14.560Z,11.79
2022-12-31T07:47:41.382Z,11.82
2022-12-31T07:50:15.541Z,11.83
2022-12-31T07:52:42.487Z,11.82
2022-12-31T07:55:10.712Z,11.84
2022-12-31T07:57:47.304Z,11.90
2022-12-31T08:00:15.099Z,11.92
2022-12-31T08:02:57.383Z,11.92
2022-12-31T08:05:50.853Z,11.95
2022-12-31T08:08:46.637Z,11.97
2022-12-31T08:11:20.675Z,11.98
2022-12-31T08:13:47.401Z,12.00
2022-12-31T08:16:14.493Z,12.01
2022-12-31T08:18:41.182Z,12.02
2022-12-31T08:21:35.122Z,12.03
2022-12-31T08:24:15.859Z,12.03
2022-12-31T08:27:11.976Z,12.03
2022-12-31T08:29:53.205Z,12.03
2022-12-31T08:32:35.000Z,12.02
2022-12-31T08:35:22.663Z,12.02
2022-12-31T08:38:12.954Z,12.00
2022-12-31T08:40:57.446Z,12.00
2022-12-31T08:43:40.865Z,12.00
2022-12-31T08:46:16.993Z,12.00
2022-12-31T08:48:44.011Z,11.99
2022-12-31T08:51:20.644Z,11.98
2022-12-31T08:53:48.445Z,11.97
2022-12-31T08:56:29.995Z,11.96
2022-12-31T08:59:35.230Z,11.93
2022-12-31T09:02:07.592Z,11.92
2022-12-31T09:04:53.562Z,11.92
2022-12-31T09:07:27.987Z,11.92
2022-12-31T09:10:00.541Z,11.94
2022-12-31T09:12:37.881Z,11.94
2022-12-31T09:15:28.458Z,11.94
2022-12-31T09:17:55.361Z,11.95
2022-12-31T09:20:26.168Z,11.98
2022-12-31T09:22:54.236Z,12.02
2022-12-31T09:25:22.697Z,12.07
2022-12-31T09:28:05.603Z,12.10
2022-12-31T09:30:48.563Z,12.14
2022-12-31T09:33:33.598Z,12.18
2022-12-31T09:36:09.000Z,12.23
2022-12-31T09:38:41.683Z,12.26
2022-12-31T09:41:24.848Z,12.28
2022-12-31T09:44:27.257Z,12.31
2022-12-31T09:47:30.701Z,12.34
2022-12-31T09:50:25.086Z,12.38
2022-12-31T09:53:03.785Z,12.43
2022-12-31T09:55:45.470Z,12.45
2022-12-31T09:58:27.740Z,12.49
2022-12-31T10:01:12.910Z,12.51
2022-12-31T10:04:01.211Z,12.51
2022-12-31T10:06:48.734Z,12.55
2022-12-31T10:09:30.481Z,12.59
2022-12-31T10:12:18.076Z,12.65
2022-12-31T10:15:29.564Z,12.73
2022-12-31T10:18:01.796Z,12.78
2022-12-31T10:20:46.743Z,12.82
2022-12-31T10:23:34.692Z,12.86
2022-12-31T10:26:37.601Z,12.90
2022-12-31T10:29:30.405Z,12.96
2022-12-31T10:32:05.885Z,13.00
2022-12-31T10:34:54.662Z,13.08
2022-12-31T10:37:34.793Z,13.08
2022-12-31T10:40:16.233Z,13.08
2022-12-31T10:43:21.445Z,13.09
2022-12-31T10:46:07.731Z,13.10
2022-12-31T10:48:59.021Z,13.12
2022-12-31T10:51:41.138Z,13.13
2022-12-31T10:54:52.352Z,13.13
2022-12-31T10:57:46.885Z,13.14
2022-12-31T11:00:21.671Z,13.15
2022-12-31T11:03:16.558Z,13.16
2022-12-31T11:05:54.894Z,13.18
2022-12-31T11:08:39.094Z,13.18
2022-12-31T11:11:20.387Z,13.20
2022-12-31T11:13:57.773Z,13.27
2022-12-31T11:16:56.985Z,13.28
2022-12-31T11:19:41.630Z,13.29
2022-12-31T11:22:45.917Z,13.29
2022-12-31T11:25:12.679Z,13.28
2022-12-31T11:27:57.843Z,13.25
2022-12-31T11:31:02.184Z,13.23
2022-12-31T11:33:50.656Z,13.23
2022-12-31T11:36:32.346Z,13.24
2022-12-31T11:39:31.042Z,13.24
2022-12-31T11:42:32.465Z,13.25
2022-12-31T11:45:50.280Z,13.25
2022-12-31T11:48:30.483Z,13.28
2022-12-31T11:51:27.019Z,13.30
2022-12-31T11:54:20.159Z,13.32
2022-12-31T11:57:22.418Z,13.43
2022-12-31T11:59:56.465Z,13.45
2022-12-31T12:02:43.061Z,13.47
2022-12-31T12:05:13.583Z,13.51
2022-12-31T12:07:40.122Z,13.54
2022-12-31T12:10:33.503Z,13.56
2022-12-31T12:13:11.634Z,13.56
2022-12-31T12:15:38.364Z,13.54
2022-12-31T12:18:10.047Z,13.54
2022-12-31T12:20:38.332Z,13.58
2022-12-31T12:23:20.237Z,13.55
2022-12-31T12:25:46.635Z,13.56
2022-12-31T12:28:20.674Z,13.55
2022-12-31T12:31:03.397Z,13.53
2022-12-31T12:33:41.389Z,13.55
2022-12-31T12:36:09.604Z,13.56
2022-12-31T12:38:36.884Z,13.57
2022-12-31T12:41:06.832Z,13.56
2022-12-31T12:43:36.080Z,13.56
2022-12-31T12:46:06.139Z,13.56
2022-12-31T12:48:41.452Z,13.54
2022-12-31T12:51:36.878Z,13.54
2022-12-31T12:54:27.983Z,13.56
2022-12-31T12:57:11.627Z,13.58
2022-12-31T13:00:15.011Z,13.58
2022-12-31T13:03:27.078Z,13.59
2022-12-31T13:06:21.332Z,13.63
2022-12-31T13:09:14.554Z,13.62
2022-12-31T13:12:07.267Z,13.64
2022-12-31T13:14:58.745Z,13.63
2022-12-31T13:17:55.057Z,13.61
2022-12-31T13:20:35.530Z,13.60
2022-12-31T13:23:20.983Z,13.60
2022-12-31T13:25:57.621Z,13.59
2022-12-31T13:28:25.283Z,13.57
2022-12-31T13:31:03.324Z,13.55
2022-12-31T13:33:39.301Z,13.53
2022-12-31T13:36:10.350Z,13.50
2022-12-31T13:38:41.954Z,13.49
2022-12-31T13:41:24.778Z,13.49
2022-12-31T13:44:24.921Z,13.46
2022-12-31T13:47:12.807Z,13.44
2022-12-31T13:50:15.125Z,13.43
2022-12-31T13:52:48.447Z,13.41
2022-12-31T13:55:30.769Z,13.42
2022-12-31T13:58:11.246Z,13.41
2022-12-31T14:01:13.272Z,13.40
2022-12-31T14:04:14.052Z,13.40
2022-12-31T14:06:55.813Z,13.39
2022-12-31T14:09:24.916Z,13.43
2022-12-31T14:12:01.242Z,13.44
2022-12-31T14:14:52.733Z,13.43
2022-12-31T14:17:42.449Z,13.43
2022-12-31T14:20:23.880Z,13.42
2022-12-31T14:23:18.986Z,13.41
2022-12-31T14:25:59.575Z,13.41
2022-12-31T14:28:33.746Z,13.42
2022-12-31T14:31:38.227Z,13.41
2022-12-31T14:34:09.440Z,13.40
2022-12-31T14:36:59.977Z,13.37
2022-12-31T14:39:58.813Z,13.32
2022-12-31T14:42:37.511Z,13.27
2022-12-31T14:45:41.315Z,13.26
2022-12-31T14:48:25.448Z,13.20
2022-12-31T14:50:52.656Z,13.17
2022-12-31T14:53:23.829Z,13.20
2022-12-31T14:55:59.057Z,13.21
2022-12-31T14:58:40.411Z,13.19
2022-12-31T15:01:22.321Z,13.21
2022-12-31T15:03:50.467Z,13.19
2022-12-31T15:06:22.737Z,13.18
2022-12-31T15:09:08.189Z,13.17
2022-12-31T15:11:57.142Z,13.15
2022-12-31T15:14:52.870Z,13.13
2022-12-31T15:17:36.951Z,13.13
2022-12-31T15:20:25.002Z,13.12
2022-12-31T15:22:52.821Z,13.10
2022-12-31T15:25:40.771Z,13.11
2022-12-31T15:28:22.865Z,13.10
2022-12-31T15:30:50.542Z,13.11
2022-12-31T15:33:37.596Z,13.17
2022-12-31T15:36:20.050Z,13.19
2022-12-31T15:38:46.794Z,13.21
2022-12-31T15:41:26.790Z,13.23
2022-12-31T15:44:18.841Z,13.30
2022-12-31T15:46:47.329Z,13.31
2022-12-31T15:49:23.183Z,13.32
2022-12-31T15:52:07.998Z,13.38
2022-12-31T15:54:41.973Z,13.40
2022-12-31T15:57:17.024Z,13.41
2022-12-31T15:59:44.830Z,13.44
2022-12-31T16:02:20.791Z,13.42
2022-12-31T16:04:47.771Z,13.42
2022-12-31T16:07:14.661Z,13.41
2022-12-31T16:09:41.603Z,13.45
2022-12-31T16:12:12.173Z,13.48
2022-12-31T16:14:40.519Z,13.51
2022-12-31T16:17:21.354Z,13.51
2022-12-31T16:19:47.873Z,13.53
2022-12-31T16:22:24.419Z,13.52
2022-12-31T16:27:46.052Z,13.51
2022-12-31T16:30:22.122Z,13.50
2022-12-31T16:32:50.120Z,13.49
2022-12-31T16:35:34.790Z,13.53
2022-12-31T16:38:21.787Z,13.51
2022-12-31T16:41:11.343Z,13.51
2022-12-31T16:43:43.294Z,13.54
2022-12-31T16:46:17.226Z,13.57
2022-12-31T16:48:54.189Z,13.57
2022-12-31T16:51:25.798Z,13.53
2022-12-31T16:53:52.456Z,13.51
2022-12-31T16:56:39.478Z,13.55
2022-12-31T16:59:30.431Z,13.61
2022-12-31T17:02:01.672Z,13.61
2022-12-31T17:04:28.537Z,13.61
2022-12-31T17:06:55.103Z,13.60
2022-12-31T17:09:33.496Z,13.57
2022-12-31T17:12:15.937Z,13.57
2022-12-31T17:14:51.771Z,13.56
2022-12-31T17:17:27.279Z,13.51
2022-12-31T17:20:00.556Z,13.50
2022-12-31T17:22:37.048Z,13.48
2022-12-31T17:25:26.957Z,13.46
2022-12-31T17:28:02.508Z,13.48
2022-12-31T17:30:42.858Z,13.51
2022-12-31T17:33:09.328Z,13.52
2022-12-31T17:35:41.996Z,13.51
2022-12-31T17:38:17.806Z,13.48
2022-12-31T17:40:51.263Z,13.42
2022-12-31T17:43:20.327Z,13.45
2022-12-31T17:45:50.084Z,13.45
2022-12-31T17:48:19.113Z,13.46
2022-12-31T17:50:51.052Z,13.50
2022-12-31T17:53:18.074Z,13.54
2022-12-31T17:55:47.064Z,13.56
2022-12-31T17:58:29.615Z,13.56
2022-12-31T18:00:56.867Z,13.57
2022-12-31T18:03:23.623Z,13.59
2022-12-31T18:05:50.157Z,13.59
2022-12-31T18:08:16.748Z,13.63
2022-12-31T18:10:44.316Z,13.59
2022-12-31T18:13:17.277Z,13.58
2022-12-31T18:15:44.680Z,13.59
2022-12-31T18:18:26.141Z,13.57
2022-12-31T18:20:58.627Z,13.59
2022-12-31T18:23:31.242Z,13.59
2022-12-31T18:25:57.752Z,13.58
2022-12-31T18:28:24.207Z,13.57
2022-12-31T18:30:51.511Z,13.58
2022-12-31T18:33:22.328Z,13.57
2022-12-31T18:36:09.841Z,13.54
2022-12-31T18:38:37.374Z,13.53
2022-12-31T18:41:04.435Z,13.54
2022-12-31T18:43:31.248Z,13.54
2022-12-31T18:45:58.398Z,13.59
2022-12-31T18:48:25.032Z,13.59
2022-12-31T18:50:51.576Z,13.64
2022-12-31T18:53:23.539Z,13.70
2022-12-31T18:55:52.323Z,13.71
2022-12-31T18:58:19.382Z,13.72
2022-12-31T19:00:47.253Z,13.72
2022-12-31T19:03:24.748Z,13.73
2022-12-31T19:05:51.911Z,13.71
2022-12-31T19:08:20.872Z,13.68
2022-12-31T19:10:49.526Z,13.69
2022-12-31T19:13:18.099Z,13.74
2022-12-31T19:15:47.848Z,13.73
2022-12-31T19:18:14.571Z,13.74
2022-12-31T19:20:41.514Z,13.75
2022-12-31T19:23:19.364Z,13.73
2022-12-31T19:25:47.475Z,13.76
2022-12-31T19:28:20.060Z,13.75
2022-12-31T19:30:47.155Z,13.72
2022-12-31T19:33:15.833Z,13.72
2022-12-31T19:35:43.126Z,13.73
2022-12-31T19:38:23.591Z,13.67
2022-12-31T19:40:51.188Z,13.59
2022-12-31T19:43:21.023Z,13.57
2022-12-31T19:45:48.644Z,13.59
2022-12-31T19:48:18.291Z,13.61
2022-12-31T19:50:47.245Z,13.57
2022-12-31T19:53:17.097Z,13.56
2022-12-31T19:55:43.658Z,13.58
2022-12-31T19:58:19.125Z,13.57
2022-12-31T20:00:54.555Z,13.57
2022-12-31T20:03:24.181Z,13.59
2022-12-31T20:05:51.042Z,13.59
2022-12-31T20:08:20.193Z,13.59
2022-12-31T20:10:46.789Z,13.55
2022-12-31T20:13:13.255Z,13.60
2022-12-31T20:15:40.410Z,13.63
2022-12-31T20:18:07.060Z,13.64
2022-12-31T20:20:33.577Z,13.61
2022-12-31T20:23:00.109Z,13.66
2022-12-31T20:25:26.645Z,13.68
2022-12-31T20:27:54.653Z,13.68
2022-12-31T20:30:22.966Z,13.65
2022-12-31T20:32:52.074Z,13.68
2022-12-31T20:35:19.413Z,13.70
2022-12-31T20:37:46.127Z,13.68
2022-12-31T20:40:14.141Z,13.66
2022-12-31T20:42:41.575Z,13.72
2022-12-31T20:45:10.044Z,13.74
2022-12-31T20:47:37.306Z,13.79
2022-12-31T20:50:12.637Z,13.80
2022-12-31T20:52:39.456Z,13.79
2022-12-31T20:55:06.487Z,13.76
2022-12-31T20:57:34.009Z,13.75
2022-12-31T21:00:01.143Z,13.78
2022-12-31T21:02:40.930Z,13.77
2022-12-31T21:05:08.991Z,13.80
2022-12-31T21:07:35.673Z,13.80
2022-12-31T21:10:02.236Z,13.84
2022-12-31T21:12:43.750Z,13.88
2022-12-31T21:15:13.650Z,13.90
2022-12-31T21:17:40.307Z,13.92
2022-12-31T21:20:07.553Z,13.89
2022-12-31T21:22:34.195Z,13.88
2022-12-31T21:25:01.621Z,13.89
2022-12-31T21:27:29.587Z,13.94
2022-12-31T21:32:43.485Z,13.95
2022-12-31T21:38:08.914Z,13.99
2022-12-31T21:40:35.561Z,13.95
2022-12-31T21:43:02.022Z,13.96
2022-12-31T21:45:28.694Z,13.98
2022-12-31T21:48:17.816Z,13.96
2022-12-31T21:50:46.003Z,13.93
2022-12-31T21:53:12.579Z,13.91
2022-12-31T21:55:57.706Z,13.86
2022-12-31T21:58:26.478Z,13.84
2022-12-31T22:01:13.059Z,13.88
2022-12-31T22:03:39.815Z,13.90
2022-12-31T22:06:14.413Z,13.92
2022-12-31T22:08:43.088Z,13.97
2022-12-31T22:11:10.775Z,13.97
2022-12-31T22:13:38.155Z,13.99
2022-12-31T22:16:06.195Z,13.96
2022-12-31T22:18:39.039Z,13.95
2022-12-31T22:21:17.380Z,13.93
2022-12-31T22:23:46.479Z,13.93
2022-12-31T22:26:14.754Z,13.91
2022-12-31T22:28:42.701Z,13.91
2022-12-31T22:31:14.010Z,13.93
2022-12-31T22:33:40.762Z,13.91
2022-12-31T22:36:11.143Z,13.89
2022-12-31T22:38:40.623Z,13.91
2022-12-31T22:41:10.117Z,13.91
2022-12-31T22:43:39.668Z,13.95
2022-12-31T22:46:21.365Z,13.97
2022-12-31T22:48:48.783Z,13.93
2022-12-31T22:51:17.357Z,13.95
2022-12-31T22:53:43.919Z,13.94
2022-12-31T22:56:15.729Z,13.94
2022-12-31T22:58:42.457Z,13.97
2022-12-31T23:01:17.083Z,13.98
2022-12-31T23:03:44.992Z,13.93
2022-12-31T23:06:11.704Z,13.97
2022-12-31T23:08:38.333Z,13.96
2022-12-31T23:11:09.603Z,13.98
2022-12-31T23:13:57.754Z,13.99
2022-12-31T23:16:45.320Z,14.00
2022-12-31T23:19:31.310Z,14.02
2022-12-31T23:22:17.051Z,13.99
2022-12-31T23:24:43.588Z,13.99
2022-12-31T23:27:11.097Z,13.98
2022-12-31T23:29:46.768Z,13.97
2022-12-31T23:32:15.669Z,13.99
2022-12-31T23:34:43.105Z,14.07
2022-12-31T23:37:10.106Z,14.08
2022-12-31T23:39:36.724Z,14.04
2022-12-31T23:42:03.345Z,14.03
2022-12-31T23:44:29.976Z,14.03
2022-12-31T23:46:57.030Z,14.02
2022-12-31T23:49:23.569Z,14.00
2022-12-31T23:51:50.174Z,14.03
2022-12-31T23:54:17.860Z,14.04
2022-12-31T23:56:44.673Z,14.02
2022-12-31T23:59:12.322Z,14.05
